Time;durP1;ratioP1;P1;durP2;ratioP2;P2;SDS_P1;SDS_P2;PMS_P1;PMS_P2;Temp;Humidity;BMP_temperature;BMP_pressure;BME280_temperature;BME280_humidity;BME280_pressure;Samples;Min_cycle;Max_cycle;Signal;HPM_P1;HPM_P2
2022/01/06 00:00:37;;;;;;;;;17.00;13.00;;;;;9.42;54.37;101545.97;5019073;28;45231;-63
2022/01/06 00:03:02;;;;;;;;;11.00;10.75;;;;;9.38;53.94;101537.16;5019008;28;48124;-63
2022/01/06 00:05:28;;;;;;;;;14.25;10.00;;;;;9.39;54.35;101546.06;5019139;28;45372;-63
2022/01/06 00:07:53;;;;;;;;;17.25;12.50;;;;;9.40;53.88;101540.66;5018570;28;45563;-63
2022/01/06 00:10:19;;;;;;;;;12.50;11.25;;;;;9.38;54.14;101538.94;5018421;28;45526;-63
2022/01/06 00:12:52;;;;;;;;;12.00;12.00;;;;;9.41;54.00;101541.56;5019141;28;46207;-63
2022/01/06 00:15:32;;;;;;;;;16.75;14.75;;;;;9.38;53.89;101536.28;5018670;28;45725;-63
2022/01/06 00:25:33;;;;;;;;;17.00;12.50;;;;;9.34;54.22;101534.53;5022408;28;45629;-63
2022/01/06 00:27:58;;;;;;;;;12.75;10.50;;;;;9.29;54.10;101537.31;5012105;28;45312;-63
2022/01/06 00:30:24;;;;;;;;;14.75;14.00;;;;;9.30;54.28;101540.84;5004060;28;45322;-63
2022/01/06 00:32:50;;;;;;;;;14.50;11.00;;;;;9.27;54.20;101542.66;5022147;28;45336;-63
2022/01/06 00:35:15;;;;;;;;;12.50;11.25;;;;;9.30;54.54;101551.50;5004698;28;45262;-63
2022/01/06 00:37:40;;;;;;;;;13.25;11.25;;;;;9.25;54.36;101552.47;5021114;28;45423;-63
2022/01/06 00:40:07;;;;;;;;;14.50;11.25;;;;;9.27;54.25;101552.41;5020650;28;45652;-63
2022/01/06 00:42:32;;;;;;;;;16.50;14.75;;;;;9.23;54.52;101553.38;5021200;28;45459;-63
2022/01/06 00:44:57;;;;;;;;;17.00;14.75;;;;;9.24;54.60;101556.00;5031689;28;45470;-63
2022/01/06 00:47:23;;;;;;;;;14.75;10.50;;;;;9.19;54.51;101560.53;5022054;28;45354;-63
2022/01/06 00:49:48;;;;;;;;;14.25;12.00;;;;;9.19;54.33;101567.66;5020539;28;45506;-63
2022/01/06 00:52:14;;;;;;;;;15.75;12.00;;;;;9.16;54.67;101562.34;5020359;28;45279;-63
2022/01/06 00:54:40;;;;;;;;;15.50;13.00;;;;;9.14;54.66;101561.47;5022017;28;45415;-63
2022/01/06 00:57:05;;;;;;;;;14.25;12.25;;;;;9.13;54.53;101559.72;5016301;28;46656;-63
2022/01/06 00:59:31;;;;;;;;;13.00;12.25;;;;;9.16;54.82;101567.69;5025396;28;45381;-63
2022/01/06 01:01:56;;;;;;;;;15.75;14.00;;;;;9.13;54.43;101565.91;5017730;28;45430;-63
2022/01/06 01:04:21;;;;;;;;;12.25;11.25;;;;;9.09;54.55;101572.22;5011354;28;45722;-63
2022/01/06 01:06:47;;;;;;;;;17.25;11.50;;;;;9.11;54.63;101566.84;5021870;28;45407;-63
2022/01/06 01:09:12;;;;;;;;;10.75;10.75;;;;;9.12;54.57;101569.50;5022007;28;45359;-63
2022/01/06 01:11:38;;;;;;;;;16.00;11.75;;;;;9.12;54.79;101568.59;5021139;28;46285;-63
2022/01/06 01:14:17;;;;;;;;;16.00;12.50;;;;;9.11;54.68;101570.41;5017773;28;45245;-63
2022/01/06 01:16:53;;;;;;;;;15.25;12.25;;;;;9.07;54.55;101563.31;5021153;28;45431;-63
2022/01/06 01:19:19;;;;;;;;;13.25;13.00;;;;;9.00;55.02;101548.34;5021621;28;45440;-63
2022/01/06 01:21:45;;;;;;;;;16.00;12.75;;;;;9.05;54.68;101563.38;5021337;28;46602;-63
2022/01/06 01:24:10;;;;;;;;;14.75;14.75;;;;;9.04;54.95;101561.59;5014385;28;45297;-63
2022/01/06 01:26:36;;;;;;;;;13.75;13.25;;;;;9.03;54.79;101572.28;5013257;28;45446;-63
2022/01/06 01:29:01;;;;;;;;;11.00;9.25;;;;;9.03;54.95;101566.94;5014456;28;45565;-63
2022/01/06 01:31:31;;;;;;;;;12.50;10.25;;;;;9.02;54.88;101576.72;5014819;28;45368;-63
2022/01/06 01:33:59;;;;;;;;;11.25;11.25;;;;;8.99;54.92;101565.25;5020321;28;45451;-63
2022/01/06 01:36:25;;;;;;;;;13.00;11.25;;;;;9.04;55.10;101576.72;5021704;28;45309;-63
2022/01/06 01:38:50;;;;;;;;;17.00;14.00;;;;;9.02;54.71;101573.16;5021376;28;45330;-63
2022/01/06 01:41:16;;;;;;;;;12.50;12.50;;;;;9.03;54.72;101572.28;5014138;28;46480;-63
2022/01/06 01:43:43;;;;;;;;;19.50;15.00;;;;;8.95;55.03;101561.69;5033325;28;45411;-63
2022/01/06 01:46:14;;;;;;;;;12.75;12.50;;;;;9.02;54.98;101576.72;5020948;28;45223;-63
2022/01/06 01:48:45;;;;;;;;;19.75;16.25;;;;;9.03;54.88;101578.47;5021035;28;45766;-63
2022/01/06 01:51:10;;;;;;;;;14.00;13.50;;;;;9.01;55.14;101576.75;5014864;28;45305;-63
2022/01/06 01:53:37;;;;;;;;;19.00;14.50;;;;;9.03;54.89;101585.59;5003382;28;45425;-63
2022/01/06 01:56:10;;;;;;;;;17.25;10.50;;;;;9.01;54.65;101577.63;5020968;28;45305;-63
2022/01/06 01:58:37;;;;;;;;;14.00;12.50;;;;;9.02;54.81;101586.47;5003067;28;45491;-63
2022/01/06 02:01:03;;;;;;;;;13.25;12.50;;;;;9.02;54.89;101597.13;5026452;28;46173;-63
2022/01/06 02:03:29;;;;;;;;;14.25;13.25;;;;;9.02;54.67;101597.13;5001295;28;45422;-63
2022/01/06 02:05:54;;;;;;;;;15.00;14.50;;;;;8.94;54.78;101597.25;5001361;28;45284;-63
2022/01/06 02:08:20;;;;;;;;;19.25;16.25;;;;;8.95;54.69;101593.66;5019745;28;45401;-63
2022/01/06 02:10:45;;;;;;;;;14.50;14.00;;;;;8.95;55.05;101596.31;5020787;28;45385;-63
2022/01/06 02:13:11;;;;;;;;;13.50;13.25;;;;;8.90;54.71;101592.84;5020766;28;45340;-63
2022/01/06 02:15:36;;;;;;;;;18.00;13.00;;;;;8.92;54.87;101599.03;5019324;28;45435;-63
2022/01/06 02:18:02;;;;;;;;;18.00;13.75;;;;;8.90;54.72;101600.81;5022878;28;45392;-63
2022/01/06 02:20:28;;;;;;;;;18.00;14.75;;;;;8.88;54.61;101595.50;5020270;28;45524;-63
2022/01/06 02:22:54;;;;;;;;;18.50;13.25;;;;;8.87;55.06;101593.78;5020437;28;45361;-63
2022/01/06 02:25:32;;;;;;;;;22.25;15.25;;;;;8.87;55.03;101591.09;5020551;28;45167;-63
2022/01/06 02:28:00;;;;;;;;;15.75;14.00;;;;;8.86;54.66;101597.31;5009937;28;45504;-63
2022/01/06 02:30:26;;;;;;;;;12.00;11.50;;;;;8.85;55.11;101598.25;5019765;28;45438;-63
2022/01/06 02:32:53;;;;;;;;;20.25;16.00;;;;;8.78;54.88;101593.00;5019295;28;45337;-63
2022/01/06 02:35:21;;;;;;;;;14.25;12.75;;;;;8.81;54.66;101604.47;5006153;28;45366;-63
2022/01/06 02:37:47;;;;;;;;;16.75;14.00;;;;;8.83;54.73;101600.00;5020638;28;45450;-63
2022/01/06 02:40:16;;;;;;;;;13.75;12.00;;;;;8.83;54.75;101600.00;5019789;28;46030;-63
2022/01/06 02:42:52;;;;;;;;;13.75;12.00;;;;;8.81;54.84;101603.59;5019366;28;45316;-63
2022/01/06 02:45:19;;;;;;;;;13.75;13.50;;;;;8.80;55.06;101605.38;5019702;28;45428;-63
2022/01/06 02:47:47;;;;;;;;;13.50;10.75;;;;;8.80;55.00;101605.38;5020361;28;45480;-63
2022/01/06 02:50:14;;;;;;;;;18.25;14.00;;;;;8.78;55.06;101604.50;5019798;28;46068;-63
2022/01/06 02:52:39;;;;;;;;;12.25;11.00;;;;;8.77;54.82;101599.19;5018710;28;46863;-63
2022/01/06 02:55:07;;;;;;;;;10.00;10.00;;;;;8.74;54.93;101600.13;5019997;28;45349;-63
2022/01/06 02:57:32;;;;;;;;;14.75;12.75;;;;;8.74;54.98;101607.22;5020411;28;45265;-63
2022/01/06 02:59:57;;;;;;;;;13.25;13.25;;;;;8.70;54.92;101601.03;5019458;28;46121;-63
2022/01/06 03:02:24;;;;;;;;;11.75;10.75;;;;;8.72;54.93;101612.59;5020015;28;45332;-63
2022/01/06 03:04:49;;;;;;;;;15.50;13.00;;;;;8.67;54.89;101617.03;5020077;28;45500;-63
2022/01/06 03:07:15;;;;;;;;;17.50;14.25;;;;;8.66;55.05;101624.16;5020416;28;45339;-63
2022/01/06 03:09:42;;;;;;;;;13.75;11.50;;;;;8.63;54.90;101618.88;5019574;28;45320;-63
2022/01/06 03:12:18;;;;;;;;;9.75;9.50;;;;;8.64;55.18;101622.44;5018765;28;45453;-63
2022/01/06 03:14:43;;;;;;;;;15.00;12.75;;;;;8.62;55.11;101624.19;5018545;28;45539;-63
2022/01/06 03:17:09;;;;;;;;;20.75;15.00;;;;;8.61;54.80;101626.00;5019621;28;45614;-63
2022/01/06 03:19:34;;;;;;;;;14.25;10.75;;;;;8.59;55.07;101630.44;5019441;28;45392;-63
2022/01/06 03:21:59;;;;;;;;;19.00;12.75;;;;;8.61;54.93;101639.28;5019715;28;45300;-63
2022/01/06 03:24:24;;;;;;;;;8.50;8.50;;;;;8.60;55.09;101633.97;5020904;28;45362;-63
2022/01/06 03:26:50;;;;;;;;;14.25;14.25;;;;;8.61;55.29;101643.75;5018411;28;45642;-63
2022/01/06 03:29:15;;;;;;;;;16.50;11.00;;;;;8.57;55.31;101628.69;5001211;28;48119;-63
2022/01/06 03:31:41;;;;;;;;;13.75;13.00;;;;;8.63;55.24;101639.28;5019550;28;45319;-63
2022/01/06 03:34:08;;;;;;;;;18.00;13.00;;;;;8.64;55.17;101644.59;5019620;28;45440;-63
2022/01/06 03:36:33;;;;;;;;;15.00;13.00;;;;;8.64;55.38;101651.72;5018454;28;45483;-63
2022/01/06 03:38:59;;;;;;;;;13.75;10.25;;;;;8.61;55.33;101647.28;5019177;28;45245;-63
2022/01/06 03:41:24;;;;;;;;;15.75;13.75;;;;;8.59;55.48;101637.56;5020335;28;45472;-63
2022/01/06 03:43:49;;;;;;;;;13.25;12.00;;;;;8.59;55.42;101638.44;5019575;28;45270;-63
2022/01/06 03:46:15;;;;;;;;;10.25;10.25;;;;;8.58;54.99;101636.66;5019270;28;45293;-63
2022/01/06 03:48:40;;;;;;;;;14.50;12.50;;;;;8.59;55.29;101641.09;5019235;28;45305;-63
2022/01/06 03:51:05;;;;;;;;;13.25;8.50;;;;;8.61;55.13;101638.44;5019036;28;45344;-63
2022/01/06 03:53:31;;;;;;;;;20.00;17.25;;;;;8.63;55.21;101639.28;5019405;28;45230;-63
2022/01/06 03:55:56;;;;;;;;;6.00;5.00;;;;;8.57;55.00;101637.56;5026711;28;45287;-63
2022/01/06 03:58:21;;;;;;;;;13.00;12.00;;;;;8.53;55.29;101641.16;5021708;28;45435;-63
2022/01/06 04:00:47;;;;;;;;;15.50;13.00;;;;;8.59;55.26;101653.53;5022127;28;45308;-63
2022/01/06 04:03:12;;;;;;;;;13.00;13.00;;;;;8.53;55.40;101651.78;5020329;28;45294;-63
2022/01/06 04:05:37;;;;;;;;;17.25;13.00;;;;;8.51;55.06;101646.47;5014091;28;45373;-63
2022/01/06 04:08:04;;;;;;;;;12.25;12.00;;;;;8.51;55.43;101643.81;5009319;28;47326;-63
2022/01/06 04:10:30;;;;;;;;;13.75;10.25;;;;;8.51;55.60;101640.28;5021252;28;45639;-63
2022/01/06 04:12:55;;;;;;;;;13.25;12.25;;;;;8.50;55.27;101642.06;5026319;28;45408;-63
2022/01/06 04:15:23;;;;;;;;;14.50;12.00;;;;;8.52;55.22;101656.25;5021974;28;45355;-63
2022/01/06 04:17:49;;;;;;;;;14.00;12.25;;;;;8.54;55.39;101653.56;5020959;28;47081;-63
2022/01/06 04:20:14;;;;;;;;;13.50;10.00;;;;;8.51;55.72;101659.78;5022481;28;45329;-63
2022/01/06 04:22:42;;;;;;;;;15.75;12.75;;;;;8.51;55.33;101649.13;5022359;28;45279;-63
2022/01/06 04:25:08;;;;;;;;;11.75;9.75;;;;;8.43;55.52;101640.34;5022585;28;45408;-63
2022/01/06 04:27:33;;;;;;;;;17.25;12.00;;;;;8.51;55.43;101646.47;5022981;28;45427;-63
2022/01/06 04:29:59;;;;;;;;;12.00;12.00;;;;;8.51;55.36;101645.59;5031926;28;45302;-63
2022/01/06 04:32:24;;;;;;;;;12.75;9.50;;;;;8.51;55.25;101648.28;5021933;28;45421;-63
2022/01/06 04:34:49;;;;;;;;;19.00;14.00;;;;;8.46;55.46;101645.66;5022495;28;45303;-63
2022/01/06 04:37:15;;;;;;;;;11.75;11.75;;;;;8.52;55.60;101648.25;5022334;28;45465;-63
2022/01/06 04:39:40;;;;;;;;;13.00;9.00;;;;;8.49;55.31;101637.63;5020934;28;45330;-63
2022/01/06 04:42:05;;;;;;;;;17.75;13.50;;;;;8.46;55.40;101635.00;5005288;28;45347;-63
2022/01/06 04:44:31;;;;;;;;;13.75;13.00;;;;;8.50;55.63;101643.84;5022218;28;45407;-63
2022/01/06 04:46:56;;;;;;;;;15.25;13.75;;;;;8.49;55.14;101648.28;5003353;28;47167;-62
2022/01/06 04:49:22;;;;;;;;;16.00;14.25;;;;;8.50;55.42;101652.72;5021808;28;45496;-63
2022/01/06 04:51:48;;;;;;;;;14.75;11.50;;;;;8.51;55.41;101648.28;5021689;28;45256;-63
2022/01/06 04:54:13;;;;;;;;;13.00;9.75;;;;;8.50;55.22;101650.06;5004029;28;45528;-63
2022/01/06 04:56:39;;;;;;;;;13.25;11.25;;;;;8.49;55.37;101639.44;5021667;28;45234;-63
2022/01/06 04:59:08;;;;;;;;;13.75;11.75;;;;;8.40;55.27;101624.38;5003832;28;45288;-63
2022/01/06 05:01:35;;;;;;;;;15.00;12.75;;;;;8.46;55.38;101636.78;5008717;28;45530;-63
2022/01/06 05:04:01;;;;;;;;;11.75;9.75;;;;;8.45;55.27;101662.53;5022155;28;45308;-63
2022/01/06 05:06:26;;;;;;;;;12.75;12.50;;;;;8.39;55.27;101670.50;5021751;28;45440;-63
2022/01/06 05:08:52;;;;;;;;;14.00;10.25;;;;;8.37;55.47;101659.00;5021279;28;45368;-63
2022/01/06 05:11:18;;;;;;;;;12.75;11.50;;;;;8.37;55.40;101667.00;5021508;28;45373;-63
2022/01/06 05:13:43;;;;;;;;;12.00;10.75;;;;;8.36;55.00;101665.22;5021783;28;45496;-63
2022/01/06 05:16:08;;;;;;;;;13.25;12.00;;;;;8.34;55.78;101667.88;5021673;28;45475;-63
2022/01/06 05:18:35;;;;;;;;;3.00;1.75;;;;;8.36;55.49;101683.84;5021560;28;45322;-63
2022/01/06 05:21:01;;;;;;;;;12.50;9.25;;;;;8.36;55.35;101681.19;5030646;28;45292;-63
2022/01/06 05:23:26;;;;;;;;;12.00;9.00;;;;;8.33;55.41;101681.19;5021725;28;45383;-63
2022/01/06 05:25:52;;;;;;;;;12.00;11.00;;;;;8.35;55.53;101674.06;5021354;28;45285;-63
2022/01/06 05:28:17;;;;;;;;;12.25;9.25;;;;;8.32;55.56;101674.13;5011046;28;45894;-63
2022/01/06 05:30:42;;;;;;;;;17.00;12.25;;;;;8.33;55.68;101673.22;5010640;28;45180;-63
2022/01/06 05:33:07;;;;;;;;;12.25;12.25;;;;;8.34;55.79;101681.19;5015355;28;45162;-63
2022/01/06 05:35:33;;;;;;;;;13.50;13.00;;;;;8.32;55.83;101685.66;5021242;28;46111;-63
2022/01/06 05:37:58;;;;;;;;;14.00;12.50;;;;;8.32;55.46;101685.66;5026219;28;45475;-63
2022/01/06 05:40:24;;;;;;;;;14.50;13.75;;;;;8.27;55.79;101675.91;5019735;28;45362;-62
2022/01/06 05:42:49;;;;;;;;;11.50;9.25;;;;;8.32;55.55;101684.78;5003561;28;45503;-63
2022/01/06 05:45:16;;;;;;;;;18.25;13.75;;;;;8.27;55.71;101681.25;5021013;28;45435;-62
2022/01/06 05:47:41;;;;;;;;;15.00;14.75;;;;;8.27;55.99;101681.25;5020732;28;45582;-63
2022/01/06 05:50:08;;;;;;;;;14.00;13.75;;;;;8.29;55.56;101698.97;5019675;28;45426;-63
2022/01/06 05:52:34;;;;;;;;;17.00;14.00;;;;;8.29;55.54;101695.44;5021062;28;45483;-63
2022/01/06 05:55:00;;;;;;;;;17.00;14.75;;;;;8.25;55.44;101694.56;5001285;28;45567;-64
2022/01/06 05:57:25;;;;;;;;;16.00;13.00;;;;;8.29;55.68;101698.97;5020793;28;45201;-63
2022/01/06 05:59:50;;;;;;;;;13.50;11.50;;;;;8.26;55.62;101691.00;5003205;28;45227;-63
2022/01/06 06:02:16;;;;;;;;;16.25;13.00;;;;;8.25;55.61;101688.34;5020788;28;45252;-63
2022/01/06 06:04:41;;;;;;;;;15.50;13.00;;;;;8.28;55.87;101696.31;5020289;28;46209;-63
2022/01/06 06:07:06;;;;;;;;;18.00;14.75;;;;;8.24;55.93;101687.47;5017336;28;45356;-63
2022/01/06 06:09:32;;;;;;;;;14.50;13.50;;;;;8.25;55.96;101693.66;5017040;28;45321;-63
2022/01/06 06:11:57;;;;;;;;;16.25;14.00;;;;;8.25;55.74;101704.31;5020804;28;45315;-63
2022/01/06 06:14:22;;;;;;;;;16.75;14.00;;;;;8.25;55.78;101710.53;5020691;28;45317;-63
2022/01/06 06:16:48;;;;;;;;;14.50;13.50;;;;;8.21;55.81;101706.13;5017414;28;45451;-63
2022/01/06 06:19:13;;;;;;;;;17.25;14.00;;;;;8.26;55.81;101716.72;5019067;28;45369;-63
2022/01/06 06:21:38;;;;;;;;;16.00;14.75;;;;;8.26;55.92;101724.72;5020101;28;45261;-63
2022/01/06 06:24:04;;;;;;;;;14.75;13.50;;;;;8.24;55.86;101726.50;5021846;28;46206;-63
2022/01/06 06:26:29;;;;;;;;;15.25;14.00;;;;;8.22;55.68;101725.59;5018860;28;45387;-63
2022/01/06 06:28:55;;;;;;;;;17.00;13.75;;;;;8.22;55.95;101726.50;5013058;28;45340;-62
2022/01/06 06:31:20;;;;;;;;;14.50;13.75;;;;;8.21;55.83;101730.06;5017633;28;45515;-63
2022/01/06 06:33:46;;;;;;;;;16.25;12.75;;;;;8.23;56.25;101730.03;5017596;28;45367;-63
2022/01/06 06:36:12;;;;;;;;;14.75;14.00;;;;;8.19;56.13;101731.84;5001999;28;45328;-63
2022/01/06 06:38:39;;;;;;;;;19.50;14.00;;;;;8.14;56.19;101731.88;5002852;28;45562;-63
2022/01/06 06:41:04;;;;;;;;;19.00;18.25;;;;;8.20;55.98;101740.69;5006034;28;45651;-63
2022/01/06 06:43:30;;;;;;;;;14.00;12.00;;;;;8.22;56.17;101746.88;5025103;28;46713;-64
2022/01/06 06:45:56;;;;;;;;;17.25;12.50;;;;;8.21;55.80;101740.69;5018337;28;45274;-63
2022/01/06 06:48:22;;;;;;;;;12.00;10.25;;;;;8.25;56.26;101758.41;5018445;28;45545;-63
2022/01/06 06:50:48;;;;;;;;;11.75;8.50;;;;;8.25;56.20;101755.75;5009921;28;45554;-65
2022/01/06 06:53:13;;;;;;;;;14.25;13.50;;;;;8.26;56.20;101736.22;5014963;28;45386;-65
2022/01/06 06:55:39;;;;;;;;;13.50;12.75;;;;;8.29;56.15;101743.31;5020273;28;45328;-64
2022/01/06 06:58:04;;;;;;;;;15.75;13.50;;;;;8.21;56.49;101727.41;5026226;28;45361;-65
2022/01/06 07:00:30;;;;;;;;;16.00;13.00;;;;;8.31;56.42;101746.84;5012286;28;45455;-65
2022/01/06 07:02:55;;;;;;;;;16.25;14.25;;;;;8.31;56.46;101747.72;5014675;28;45790;-65
2022/01/06 07:05:21;;;;;;;;;19.00;16.75;;;;;8.32;56.33;101748.63;5020327;28;45322;-64
2022/01/06 07:07:47;;;;;;;;;14.50;13.00;;;;;8.32;56.30;101749.50;5020017;28;46029;-66
2022/01/06 07:10:13;;;;;;;;;17.25;15.50;;;;;8.30;55.93;101748.63;5015919;28;45365;-65
2022/01/06 07:12:42;;;;;;;;;20.75;18.00;;;;;8.29;56.12;101748.63;5018502;28;45606;-66
2022/01/06 07:15:10;;;;;;;;;18.00;17.00;;;;;8.26;56.35;101743.34;5016195;28;46193;-66
2022/01/06 07:17:35;;;;;;;;;18.25;15.50;;;;;8.31;56.38;101763.69;5019533;28;45376;-66
2022/01/06 07:20:00;;;;;;;;;19.00;17.50;;;;;8.33;56.81;101771.66;5019913;28;45639;-66
2022/01/06 07:22:26;;;;;;;;;18.00;15.25;;;;;8.34;56.44;101752.16;5019168;28;46168;-66
2022/01/06 07:24:51;;;;;;;;;21.25;18.25;;;;;8.32;56.39;101752.16;5019691;28;45328;-66
2022/01/06 07:27:17;;;;;;;;;22.00;18.75;;;;;8.39;56.57;101752.13;5023078;28;46530;-66
2022/01/06 07:29:43;;;;;;;;;28.75;24.75;;;;;8.37;56.49;101751.22;5022459;28;45445;-65
2022/01/06 07:32:08;;;;;;;;;27.75;24.25;;;;;8.39;56.20;101749.47;5017719;28;46231;-66
2022/01/06 07:34:34;;;;;;;;;26.50;20.00;;;;;8.39;56.20;101750.34;5020715;28;45357;-66
2022/01/06 07:36:59;;;;;;;;;24.50;19.50;;;;;8.39;56.16;101758.31;5019737;28;45439;-66
2022/01/06 07:39:26;;;;;;;;;19.50;15.00;;;;;8.35;56.34;101760.13;5022341;28;45479;-62
2022/01/06 07:41:51;;;;;;;;;20.25;18.25;;;;;8.41;56.27;101764.50;5020347;28;45458;-64
2022/01/06 07:44:16;;;;;;;;;16.00;14.75;;;;;8.38;56.19;101764.50;5018403;28;45485;-64
2022/01/06 07:46:43;;;;;;;;;22.25;19.75;;;;;8.37;55.98;101753.88;5016139;28;45565;-64
2022/01/06 07:49:09;;;;;;;;;20.50;18.25;;;;;8.37;56.38;101768.09;4999215;28;45714;-64
2022/01/06 07:51:34;;;;;;;;;22.75;19.00;;;;;8.37;56.38;101773.41;5000935;28;47061;-63
2022/01/06 07:54:00;;;;;;;;;20.00;18.25;;;;;8.36;56.46;101779.63;5016964;28;46086;-63
2022/01/06 07:56:26;;;;;;;;;23.00;22.25;;;;;8.37;56.38;101785.81;5019334;28;45462;-63
2022/01/06 07:58:52;;;;;;;;;22.25;22.25;;;;;8.39;56.59;101789.38;5009837;28;45482;-63
2022/01/06 08:01:18;;;;;;;;;25.00;23.00;;;;;8.37;56.54;101785.81;5010794;28;45574;-63
2022/01/06 08:03:44;;;;;;;;;24.50;24.00;;;;;8.40;56.32;101792.00;5014147;28;46461;-62
2022/01/06 08:06:10;;;;;;;;;23.75;19.75;;;;;8.39;56.65;101781.38;5017659;28;45501;-62
2022/01/06 08:08:36;;;;;;;;;29.00;24.00;;;;;8.29;56.49;101764.59;5019678;28;45544;-63
2022/01/06 08:11:03;;;;;;;;;27.25;23.25;;;;;8.34;56.44;101779.63;5022083;28;48020;-63
2022/01/06 08:13:28;;;;;;;;;22.00;20.25;;;;;8.34;56.61;101787.59;4997899;28;45429;-63
2022/01/06 08:15:53;;;;;;;;;22.00;20.50;;;;;8.33;56.50;101780.50;5016051;28;45578;-63
2022/01/06 08:18:19;;;;;;;;;23.25;20.25;;;;;8.34;56.31;101784.94;5020504;28;45835;-63
2022/01/06 08:20:44;;;;;;;;;24.75;22.50;;;;;8.26;56.51;101775.25;5025659;28;45427;-63
2022/01/06 08:23:10;;;;;;;;;29.75;25.25;;;;;8.28;56.51;101781.44;5019815;28;45416;-63
2022/01/06 08:25:36;;;;;;;;;25.00;23.25;;;;;8.23;56.42;101780.59;5016261;28;45793;-63
2022/01/06 08:28:01;;;;;;;;;23.75;19.75;;;;;8.14;56.64;101784.19;5020072;28;45500;-63
2022/01/06 08:30:27;;;;;;;;;27.00;24.25;;;;;8.07;56.53;101780.69;5015105;28;46016;-63
2022/01/06 08:32:54;;;;;;;;;23.75;23.25;;;;;8.04;56.46;101787.78;5016640;28;46967;-63
2022/01/06 08:35:20;;;;;;;;;28.00;23.50;;;;;8.08;56.71;101797.50;5015462;28;45375;-62
2022/01/06 08:37:46;;;;;;;;;30.75;21.50;;;;;8.06;56.91;101809.94;5019769;28;45856;-63
2022/01/06 08:40:12;;;;;;;;;21.75;20.25;;;;;8.04;56.67;101798.44;5017063;28;46185;-63
2022/01/06 08:42:38;;;;;;;;;27.50;24.75;;;;;8.09;57.15;101801.94;5014808;28;45397;-63
2022/01/06 08:45:04;;;;;;;;;24.00;20.75;;;;;8.08;57.45;101794.84;5020726;28;45962;-63
2022/01/06 08:47:29;;;;;;;;;28.00;25.50;;;;;8.06;57.13;101792.19;5020804;28;45451;-62
2022/01/06 08:49:55;;;;;;;;;29.25;27.75;;;;;8.12;56.87;101809.91;5011094;28;45645;-63
2022/01/06 08:52:22;;;;;;;;;31.25;25.50;;;;;8.14;57.46;101800.16;5021964;28;45583;-63
2022/01/06 08:54:48;;;;;;;;;19.25;18.25;;;;;8.20;57.00;101801.88;5020842;28;45502;-63
2022/01/06 08:57:14;;;;;;;;;24.25;19.50;;;;;8.24;57.00;101820.47;5018254;28;45460;-62
2022/01/06 08:59:39;;;;;;;;;25.50;23.25;;;;;8.24;57.22;101809.84;5011763;28;46446;-63
2022/01/06 09:02:05;;;;;;;;;20.25;19.50;;;;;8.29;57.48;101805.38;5016661;28;45499;-63
2022/01/06 09:04:30;;;;;;;;;24.75;22.25;;;;;8.29;57.34;101799.19;4993427;28;48559;-63
2022/01/06 09:06:58;;;;;;;;;18.00;14.25;;;;;8.30;57.28;101799.19;5029236;28;45632;-64
2022/01/06 09:09:24;;;;;;;;;23.25;19.00;;;;;8.37;56.61;101810.66;5019451;28;45457;-63
2022/01/06 09:11:50;;;;;;;;;21.75;19.75;;;;;8.27;57.05;101788.53;5018638;28;45849;-62
2022/01/06 09:14:15;;;;;;;;;19.75;17.00;;;;;8.43;56.80;101810.63;5020552;28;45717;-62
2022/01/06 09:16:41;;;;;;;;;19.00;17.25;;;;;8.45;56.81;101811.53;5020628;28;45773;-62
2022/01/06 09:19:06;;;;;;;;;19.25;16.25;;;;;8.45;57.07;101814.19;5018732;28;45789;-62
2022/01/06 09:21:31;;;;;;;;;17.25;13.00;;;;;8.48;56.76;101810.63;5016728;28;45607;-63
2022/01/06 09:23:59;;;;;;;;;19.25;15.50;;;;;8.44;56.56;101806.22;5019159;28;45543;-63
2022/01/06 09:26:25;;;;;;;;;16.50;15.75;;;;;8.51;56.38;101819.44;5020004;28;45451;-63
2022/01/06 09:28:51;;;;;;;;;19.25;14.50;;;;;8.51;56.60;101819.44;5001456;28;47121;-62
2022/01/06 09:31:17;;;;;;;;;19.25;15.50;;;;;8.53;56.62;101820.31;5020020;28;45353;-63
2022/01/06 09:33:42;;;;;;;;;15.00;15.00;;;;;8.56;56.66;101814.09;5019730;28;45417;-62
2022/01/06 09:36:07;;;;;;;;;13.50;13.00;;;;;8.59;56.58;101818.53;5024063;28;45144;-62
2022/01/06 09:38:33;;;;;;;;;18.00;16.00;;;;;8.62;56.28;101832.72;5019507;28;45516;-63
2022/01/06 09:41:03;;;;;;;;;19.00;17.00;;;;;8.65;56.64;101826.47;5017737;28;46113;-62
2022/01/06 09:43:31;;;;;;;;;18.00;15.75;;;;;8.63;56.29;101829.13;5018319;28;45449;-62
2022/01/06 09:46:04;;;;;;;;;23.25;18.50;;;;;8.69;56.37;101833.53;5018424;28;45306;-62
2022/01/06 09:48:31;;;;;;;;;22.25;22.25;;;;;8.67;56.34;101832.66;5012597;28;46352;-62
2022/01/06 09:50:56;;;;;;;;;23.50;20.75;;;;;8.65;56.67;101840.69;5015985;28;45546;-63
2022/01/06 09:53:24;;;;;;;;;29.75;24.75;;;;;8.66;56.89;101837.09;5019961;28;46270;-63
2022/01/06 09:55:49;;;;;;;;;28.75;27.00;;;;;8.61;57.02;101832.72;5018115;28;45400;-62
2022/01/06 09:58:23;;;;;;;;;29.50;24.75;;;;;8.64;56.68;101835.34;5018517;28;45408;-64
2022/01/06 10:00:48;;;;;;;;;26.25;25.00;;;;;8.68;56.82;101847.75;5012311;28;45486;-63
2022/01/06 10:03:13;;;;;;;;;32.75;28.25;;;;;8.70;56.77;101844.19;5024119;28;45417;-64
2022/01/06 10:05:44;;;;;;;;;31.50;25.75;;;;;8.68;57.10;101840.63;4993589;28;45459;-63
2022/01/06 10:08:11;;;;;;;;;29.00;25.75;;;;;8.74;57.23;101847.72;5013307;28;46287;-63
2022/01/06 10:10:37;;;;;;;;;24.00;21.75;;;;;8.78;57.23;101852.09;5019075;28;45354;-63
2022/01/06 10:13:07;;;;;;;;;18.50;17.75;;;;;8.80;56.78;101846.75;5019006;28;45539;-64
2022/01/06 10:15:35;;;;;;;;;15.50;15.00;;;;;8.79;56.80;101847.69;5013538;28;45559;-64
2022/01/06 10:18:17;;;;;;;;;17.50;14.00;;;;;8.83;56.58;101842.28;5017767;28;46285;-64
2022/01/06 10:20:44;;;;;;;;;14.00;11.50;;;;;8.89;56.37;101849.38;5019173;28;45811;-64
2022/01/06 10:23:13;;;;;;;;;9.00;9.00;;;;;8.90;56.51;101843.13;5018935;28;45472;-64
2022/01/06 10:25:40;;;;;;;;;13.50;10.00;;;;;8.88;56.17;101845.81;5019237;28;45507;-64
2022/01/06 10:28:21;;;;;;;;;14.00;11.75;;;;;8.90;56.38;101846.69;5019524;28;45446;-64
2022/01/06 10:30:49;;;;;;;;;10.50;10.50;;;;;8.90;56.13;101843.13;5017748;28;45625;-64
2022/01/06 10:33:16;;;;;;;;;16.75;13.00;;;;;8.86;55.91;101831.63;5019183;28;45526;-65
2022/01/06 10:35:41;;;;;;;;;18.00;11.50;;;;;8.92;55.55;101838.69;5018838;28;45484;-64
2022/01/06 10:38:07;;;;;;;;;14.25;13.25;;;;;8.96;56.07;101842.22;5019134;28;45270;-64
2022/01/06 10:40:32;;;;;;;;;9.00;9.00;;;;;8.94;56.01;101836.91;5017602;28;45419;-64
2022/01/06 10:42:57;;;;;;;;;9.50;9.00;;;;;9.01;55.85;101845.72;5019037;28;45497;-63
2022/01/06 10:45:26;;;;;;;;;9.75;8.00;;;;;8.98;56.02;101851.06;5018167;28;45479;-63
2022/01/06 10:47:53;;;;;;;;;13.00;10.50;;;;;8.99;55.69;101842.19;5022645;28;45392;-64
2022/01/06 10:50:33;;;;;;;;;13.50;8.25;;;;;9.01;55.46;101835.94;5018009;28;45868;-64
2022/01/06 10:53:04;;;;;;;;;12.00;9.25;;;;;9.05;55.66;101826.16;5004734;28;45478;-64
2022/01/06 10:55:32;;;;;;;;;8.50;8.25;;;;;9.05;55.77;101824.38;4999574;28;45507;-64
2022/01/06 10:58:00;;;;;;;;;10.00;9.00;;;;;9.07;55.43;101827.00;5018078;28;46365;-64
2022/01/06 11:00:34;;;;;;;;;9.00;8.00;;;;;9.11;55.34;101828.75;5017712;28;45680;-64
2022/01/06 11:03:10;;;;;;;;;9.75;9.00;;;;;9.13;55.65;101826.09;5018303;28;45394;-64
2022/01/06 11:05:37;;;;;;;;;8.00;8.00;;;;;9.11;55.53;101810.13;5008709;28;45667;-64
2022/01/06 11:08:04;;;;;;;;;15.25;11.25;;;;;9.15;55.64;101811.84;5016695;28;47539;-64
2022/01/06 11:10:31;;;;;;;;;15.25;12.00;;;;;9.15;55.39;101806.50;5014504;28;45431;-64
2022/01/06 11:12:57;;;;;;;;;16.50;10.50;;;;;9.17;55.23;101798.50;5012702;28;45455;-64
2022/01/06 11:15:23;;;;;;;;;13.00;10.25;;;;;9.22;55.61;101805.59;5023457;28;45471;-64
2022/01/06 11:17:50;;;;;;;;;12.00;10.00;;;;;9.24;55.23;101801.13;5016445;28;46051;-64
2022/01/06 11:20:26;;;;;;;;;12.50;12.50;;;;;9.19;55.32;101781.63;5017857;28;45396;-64
2022/01/06 11:22:53;;;;;;;;;9.00;8.25;;;;;9.27;55.13;101795.75;5013331;28;45547;-64